createdAt,value
2018-04-27T00:01:46.436Z,2.00
2018-04-27T00:04:13.915Z,2.80
2018-04-27T00:06:42.273Z,2.97
2018-04-27T00:09:09.739Z,3.00
2018-04-27T00:11:37.228Z,2.93
2018-04-27T00:14:04.695Z,2.93
2018-04-27T00:16:32.196Z,3.13
2018-04-27T00:18:59.684Z,2.83
2018-04-27T00:24:58.260Z,2.70
2018-04-27T00:27:25.738Z,2.90
2018-04-27T00:29:53.203Z,3.00
2018-04-27T00:32:30.595Z,3.20
2018-04-27T00:34:58.104Z,3.23
2018-04-27T00:37:25.621Z,3.30
2018-04-27T00:39:53.076Z,2.77
2018-04-27T00:42:20.554Z,3.00
2018-04-27T00:44:48.043Z,3.43
2018-04-27T00:47:15.503Z,3.47
2018-04-27T00:49:43.125Z,3.80
2018-04-27T00:52:10.630Z,3.60
2018-04-27T00:54:38.147Z,3.60
2018-04-27T00:57:05.619Z,4.07
2018-04-27T00:59:33.087Z,4.03
2018-04-27T01:02:00.746Z,3.70
2018-04-27T01:04:28.215Z,3.93
2018-04-27T01:06:55.691Z,3.70
2018-04-27T01:09:23.204Z,3.43
2018-04-27T01:11:50.786Z,4.27
2018-04-27T01:14:18.258Z,4.23
2018-04-27T01:16:45.731Z,3.60
2018-04-27T01:19:13.195Z,4.03
2018-04-27T01:21:40.666Z,3.67
2018-04-27T01:24:09.012Z,3.93
2018-04-27T01:26:36.529Z,4.07
2018-04-27T01:29:04.007Z,3.73
2018-04-27T01:31:31.498Z,3.90
2018-04-27T01:33:59.806Z,3.70
2018-04-27T01:36:27.277Z,3.67
2018-04-27T01:38:54.771Z,3.77
2018-04-27T01:41:22.249Z,4.27
2018-04-27T01:43:50.527Z,3.93
2018-04-27T01:46:18.165Z,4.73
2018-04-27T01:48:45.627Z,4.17
2018-04-27T01:51:13.154Z,4.23
2018-04-27T01:53:40.630Z,4.67
2018-04-27T01:56:08.173Z,5.10
2018-04-27T01:58:35.667Z,4.53
2018-04-27T02:01:03.139Z,4.77
2018-04-27T02:03:30.646Z,5.03
2018-04-27T02:05:58.124Z,4.93
2018-04-27T02:08:25.620Z,4.53
2018-04-27T02:10:53.104Z,5.23
2018-04-27T02:13:21.728Z,5.20
2018-04-27T02:15:49.217Z,4.53
2018-04-27T02:18:16.702Z,4.47
2018-04-27T02:20:44.187Z,4.23
2018-04-27T02:23:11.676Z,4.87
2018-04-27T02:25:39.145Z,4.90
2018-04-27T02:28:07.390Z,4.90
2018-04-27T02:30:34.859Z,4.47
2018-04-27T02:33:02.567Z,4.73
2018-04-27T02:35:30.092Z,4.30
2018-04-27T02:37:57.567Z,4.77
2018-04-27T02:40:25.042Z,4.33
2018-04-27T02:42:57.631Z,4.17
2018-04-27T02:45:25.095Z,4.73
2018-04-27T02:47:52.607Z,4.90
2018-04-27T02:50:20.075Z,4.90
2018-04-27T02:52:47.770Z,5.10
2018-04-27T02:55:15.286Z,4.60
2018-04-27T02:57:42.798Z,5.57
2018-04-27T03:00:10.303Z,5.27
2018-04-27T03:02:38.559Z,4.67
2018-04-27T03:05:06.736Z,4.80
2018-04-27T03:07:34.583Z,4.60
2018-04-27T03:10:02.075Z,4.20
2018-04-27T03:12:29.583Z,4.90
2018-04-27T03:14:57.079Z,4.63
2018-04-27T03:17:24.597Z,4.30
2018-04-27T03:19:52.068Z,4.67
2018-04-27T03:22:19.696Z,4.03
2018-04-27T03:24:47.181Z,4.40
2018-04-27T03:27:14.655Z,4.63
2018-04-27T03:29:42.167Z,4.67
2018-04-27T03:32:09.643Z,4.60
2018-04-27T03:34:37.131Z,4.33
2018-04-27T03:37:04.648Z,4.80
2018-04-27T03:39:32.643Z,4.30
2018-04-27T03:42:00.117Z,4.97
2018-04-27T03:44:27.637Z,4.50
2018-04-27T03:46:55.119Z,4.57
2018-04-27T03:49:22.621Z,4.80
2018-04-27T03:51:50.147Z,4.60
2018-04-27T03:54:18.351Z,4.93
2018-04-27T03:56:46.059Z,5.90
2018-04-27T03:59:13.552Z,5.27
2018-04-27T04:01:53.139Z,4.93
2018-04-27T04:04:32.317Z,5.53
2018-04-27T04:06:59.791Z,5.87
2018-04-27T04:09:28.068Z,4.57
2018-04-27T04:12:00.484Z,5.27
2018-04-27T04:14:27.960Z,5.57
2018-04-27T04:16:55.437Z,4.90
2018-04-27T04:19:22.936Z,5.60
2018-04-27T04:21:50.419Z,6.10
2018-04-27T04:24:18.862Z,5.07
2018-04-27T04:26:46.747Z,6.10
2018-04-27T04:29:14.234Z,5.80
2018-04-27T04:31:41.776Z,5.40
2018-04-27T04:34:09.268Z,5.50
2018-04-27T04:36:36.756Z,4.80
2018-04-27T04:39:05.023Z,4.83
2018-04-27T04:41:33.358Z,4.57
2018-04-27T04:44:00.818Z,5.20
2018-04-27T04:46:28.282Z,5.03
2018-04-27T04:48:55.775Z,4.80
2018-04-27T04:51:23.254Z,4.87
2018-04-27T04:53:50.724Z,5.10
2018-04-27T04:56:19.052Z,5.07
2018-04-27T04:58:46.536Z,5.47
2018-04-27T05:01:14.027Z,5.27
2018-04-27T05:03:41.728Z,5.20
2018-04-27T05:06:09.232Z,5.30
2018-04-27T05:08:36.699Z,5.10
2018-04-27T05:11:05.035Z,5.40
2018-04-27T05:13:32.527Z,5.70
2018-04-27T05:16:00.031Z,6.00
2018-04-27T05:21:25.023Z,5.73
2018-04-27T05:23:52.508Z,6.70
2018-04-27T05:26:19.979Z,6.27
2018-04-27T05:28:47.447Z,6.53
2018-04-27T05:31:23.409Z,6.93
2018-04-27T05:33:50.906Z,6.70
2018-04-27T05:36:20.189Z,6.60
2018-04-27T05:38:47.731Z,6.57
2018-04-27T05:41:16.017Z,6.50
2018-04-27T05:43:43.511Z,6.50
2018-04-27T05:46:11.003Z,6.57
2018-04-27T05:48:39.998Z,6.77
2018-04-27T05:51:08.242Z,6.50
2018-04-27T05:56:00.084Z,6.87
2018-04-27T05:58:33.384Z,6.23
2018-04-27T06:01:00.875Z,6.40
2018-04-27T06:03:40.741Z,6.13
2018-04-27T06:06:08.270Z,6.80
2018-04-27T06:08:35.975Z,6.47
2018-04-27T06:11:03.532Z,6.60
2018-04-27T06:13:36.247Z,7.10
2018-04-27T06:16:03.836Z,6.90
2018-04-27T06:18:31.435Z,6.70
2018-04-27T06:20:59.018Z,6.27
2018-04-27T06:23:26.687Z,6.23
2018-04-27T06:25:58.121Z,6.77
2018-04-27T06:28:25.882Z,6.30
2018-04-27T06:33:26.223Z,6.50
2018-04-27T06:35:53.711Z,6.27
2018-04-27T06:38:21.184Z,6.17
2018-04-27T06:40:48.686Z,6.53
2018-04-27T06:43:16.169Z,6.47
2018-04-27T06:45:43.688Z,6.60
2018-04-27T06:48:11.167Z,7.23
2018-04-27T06:50:39.590Z,6.30
2018-04-27T06:53:07.089Z,6.67
2018-04-27T06:55:34.574Z,6.97
2018-04-27T06:58:02.081Z,6.63
2018-04-27T07:00:30.324Z,6.90
2018-04-27T07:02:58.722Z,7.20
2018-04-27T07:05:27.021Z,6.83
2018-04-27T07:07:54.566Z,7.17
2018-04-27T07:10:22.823Z,7.40
2018-04-27T07:12:50.300Z,7.63
2018-04-27T07:15:18.574Z,6.73
2018-04-27T07:17:46.056Z,6.57
2018-04-27T07:20:13.540Z,7.07
2018-04-27T07:22:41.006Z,7.43
2018-04-27T07:25:08.498Z,6.80
2018-04-27T07:27:36.316Z,6.57
2018-04-27T07:30:03.888Z,6.37
2018-04-27T07:32:31.420Z,5.97
2018-04-27T07:34:58.936Z,5.83
2018-04-27T07:37:27.211Z,5.83
2018-04-27T07:39:54.712Z,5.70
2018-04-27T07:42:22.224Z,6.20
2018-04-27T07:44:49.756Z,5.47
2018-04-27T07:47:17.263Z,6.13
2018-04-27T07:49:44.734Z,6.20
2018-04-27T07:52:12.232Z,6.03
2018-04-27T07:54:39.847Z,5.60
2018-04-27T07:57:07.365Z,5.57
2018-04-27T07:59:34.893Z,4.77
2018-04-27T08:02:02.404Z,5.13
2018-04-27T08:04:29.875Z,4.57
2018-04-27T08:06:57.389Z,4.97
2018-04-27T08:09:24.874Z,4.87
2018-04-27T08:11:52.348Z,4.83
2018-04-27T08:14:19.839Z,5.37
2018-04-27T08:16:47.579Z,4.73
2018-04-27T08:19:15.360Z,4.73
2018-04-27T08:21:43.706Z,4.67
2018-04-27T08:24:11.212Z,4.73
2018-04-27T08:26:38.689Z,4.93
2018-04-27T08:29:06.444Z,4.93
2018-04-27T08:31:33.918Z,4.73
2018-04-27T08:34:02.263Z,5.10
2018-04-27T08:36:29.751Z,4.87
2018-04-27T08:38:57.274Z,4.70
2018-04-27T08:41:24.819Z,4.17
2018-04-27T08:43:52.405Z,4.40
2018-04-27T08:46:19.903Z,4.00
2018-04-27T08:48:47.370Z,4.03
2018-04-27T08:51:15.647Z,4.40
2018-04-27T08:53:43.155Z,4.57
2018-04-27T08:56:10.715Z,4.00
2018-04-27T08:58:38.208Z,3.70
2018-04-27T09:01:05.723Z,3.10
2018-04-27T09:03:33.214Z,3.57
2018-04-27T09:06:00.717Z,3.50
2018-04-27T09:08:28.246Z,3.80
2018-04-27T09:10:56.507Z,3.50
2018-04-27T09:13:29.129Z,3.73
2018-04-27T09:15:56.612Z,3.33
2018-04-27T09:18:24.111Z,3.60
2018-04-27T09:20:51.663Z,3.57
2018-04-27T09:23:19.524Z,3.60
2018-04-27T09:25:46.991Z,3.20
2018-04-27T09:28:14.733Z,3.33
2018-04-27T09:30:42.224Z,4.07
2018-04-27T09:33:09.731Z,3.70
2018-04-27T09:35:38.570Z,4.67
2018-04-27T09:38:06.801Z,3.50
2018-04-27T09:40:34.296Z,3.70
2018-04-27T09:43:02.608Z,3.50
2018-04-27T09:45:30.110Z,3.43
2018-04-27T09:47:57.595Z,3.30
2018-04-27T09:50:25.853Z,3.17
2018-04-27T09:52:53.367Z,3.17
2018-04-27T09:55:20.851Z,3.40
2018-04-27T09:57:48.321Z,3.37
2018-04-27T10:00:15.823Z,2.97
2018-04-27T10:02:44.091Z,3.37
2018-04-27T10:05:11.578Z,3.70
2018-04-27T10:07:39.063Z,3.43
2018-04-27T10:10:06.583Z,3.07
2018-04-27T10:12:34.100Z,3.10
2018-04-27T10:15:02.409Z,3.77
2018-04-27T10:17:30.700Z,2.87
2018-04-27T10:19:58.238Z,2.77
2018-04-27T10:22:25.734Z,2.90
2018-04-27T10:24:53.206Z,3.43
2018-04-27T10:27:21.063Z,3.10
2018-04-27T10:29:49.019Z,2.60
2018-04-27T10:32:16.591Z,2.50
2018-04-27T10:34:44.099Z,3.13
2018-04-27T10:37:11.577Z,3.37
2018-04-27T10:39:39.079Z,2.87
2018-04-27T10:42:06.569Z,2.57
2018-04-27T10:44:34.103Z,5.07
2018-04-27T10:47:01.575Z,3.10
2018-04-27T10:49:29.820Z,3.40
2018-04-27T10:52:02.299Z,3.27
2018-04-27T10:54:29.871Z,4.23
2018-04-27T10:56:58.094Z,4.33
2018-04-27T10:59:25.577Z,2.67
2018-04-27T11:01:53.210Z,5.20
2018-04-27T11:04:20.689Z,3.33
2018-04-27T11:06:48.187Z,2.80
2018-04-27T11:09:15.696Z,2.93
2018-04-27T11:11:43.170Z,3.83
2018-04-27T11:14:10.713Z,4.67
2018-04-27T11:16:38.188Z,2.87
2018-04-27T11:19:05.658Z,3.00
2018-04-27T11:21:33.163Z,3.30
2018-04-27T11:24:00.668Z,2.60
2018-04-27T11:26:28.166Z,3.10
2018-04-27T11:28:56.211Z,3.00
2018-04-27T11:31:23.917Z,3.23
2018-04-27T11:33:51.414Z,2.90
2018-04-27T11:36:19.011Z,2.37
2018-04-27T11:38:47.779Z,2.80
2018-04-27T11:41:16.034Z,2.33
2018-04-27T11:43:43.906Z,2.80
2018-04-27T11:46:11.434Z,2.60
2018-04-27T11:48:38.966Z,2.27
2018-04-27T11:51:07.504Z,2.73
2018-04-27T11:53:35.031Z,2.10
2018-04-27T11:56:02.534Z,2.47
2018-04-27T11:58:30.032Z,3.63
2018-04-27T12:00:57.528Z,2.93
2018-04-27T12:03:25.058Z,2.67
2018-04-27T12:05:52.567Z,3.50
2018-04-27T12:08:20.056Z,2.70
2018-04-27T12:10:47.808Z,2.80
2018-04-27T12:13:15.321Z,4.60
2018-04-27T12:15:42.806Z,2.50
2018-04-27T12:18:10.343Z,2.70
2018-04-27T12:20:38.048Z,3.03
2018-04-27T12:23:05.756Z,3.10
2018-04-27T12:25:33.283Z,3.00
2018-04-27T12:28:00.779Z,2.97
2018-04-27T12:30:28.275Z,3.07
2018-04-27T12:32:56.607Z,2.50
2018-04-27T12:35:25.519Z,2.40
2018-04-27T12:37:53.667Z,4.40
2018-04-27T12:40:21.157Z,2.20
2018-04-27T12:42:48.693Z,2.77
2018-04-27T12:45:16.240Z,3.07
2018-04-27T12:47:44.008Z,3.07
2018-04-27T12:50:11.516Z,2.77
2018-04-27T12:52:43.935Z,2.50
2018-04-27T12:55:11.439Z,1.87
2018-04-27T12:57:38.943Z,1.70
2018-04-27T13:00:06.456Z,2.00
2018-04-27T13:02:34.867Z,2.57
2018-04-27T13:05:02.425Z,2.30
2018-04-27T13:07:29.919Z,2.50
2018-04-27T13:09:57.402Z,2.00
2018-04-27T13:12:29.948Z,2.60
2018-04-27T13:14:57.447Z,3.03
2018-04-27T13:17:24.965Z,2.33
2018-04-27T13:19:52.456Z,2.40
2018-04-27T13:22:20.067Z,2.57
2018-04-27T13:24:48.455Z,2.40
2018-04-27T13:27:15.975Z,2.83
2018-04-27T13:29:43.708Z,3.37
2018-04-27T13:32:11.480Z,3.57
2018-04-27T13:34:39.004Z,3.33
2018-04-27T13:37:06.499Z,3.83
2018-04-27T13:39:33.992Z,3.17
2018-04-27T13:42:01.485Z,3.07
2018-04-27T13:44:28.984Z,3.20
2018-04-27T13:46:57.221Z,3.80
2018-04-27T13:49:24.702Z,3.70
2018-04-27T13:51:52.710Z,3.17
2018-04-27T13:54:21.555Z,3.33
2018-04-27T13:56:49.071Z,3.00
2018-04-27T13:59:16.561Z,3.50
2018-04-27T14:01:44.027Z,3.03
2018-04-27T14:04:11.740Z,3.07
2018-04-27T14:06:39.248Z,3.40
2018-04-27T14:09:06.745Z,2.60
2018-04-27T14:11:34.231Z,2.80
2018-04-27T14:14:02.202Z,2.90
2018-04-27T14:16:29.633Z,3.07
2018-04-27T14:18:57.195Z,3.10
2018-04-27T14:21:24.690Z,3.10
2018-04-27T14:23:52.330Z,3.10
2018-04-27T14:26:20.531Z,3.20
2018-04-27T14:28:48.039Z,3.50
2018-04-27T14:31:15.534Z,3.30
2018-04-27T14:33:43.810Z,4.80
2018-04-27T14:36:11.260Z,3.10
2018-04-27T14:38:38.760Z,3.77
2018-04-27T14:41:06.349Z,3.30
2018-04-27T14:43:33.834Z,3.20
2018-04-27T14:46:01.332Z,3.30
2018-04-27T14:48:28.858Z,3.20
2018-04-27T14:50:56.328Z,3.30
2018-04-27T14:53:23.820Z,3.07
2018-04-27T14:55:52.343Z,3.40
2018-04-27T14:58:19.830Z,3.50
2018-04-27T15:00:47.299Z,3.30
2018-04-27T15:03:19.933Z,3.27
2018-04-27T15:05:47.474Z,2.50
2018-04-27T15:08:15.703Z,2.60
2018-04-27T15:10:43.219Z,7.07
2018-04-27T15:13:11.731Z,5.77
2018-04-27T15:15:39.544Z,2.70
2018-04-27T15:18:07.278Z,4.20
2018-04-27T15:20:34.782Z,2.47
2018-04-27T15:23:06.234Z,3.37
2018-04-27T15:25:33.998Z,3.13
2018-04-27T15:28:02.568Z,3.13
2018-04-27T15:30:30.345Z,3.40
2018-04-27T15:33:03.224Z,3.60
2018-04-27T15:35:30.792Z,5.30
2018-04-27T15:38:00.355Z,3.67
2018-04-27T15:40:27.881Z,2.70
2018-04-27T15:42:55.551Z,4.10
2018-04-27T15:45:23.052Z,4.50
2018-04-27T15:50:23.465Z,3.00
2018-04-27T15:53:07.263Z,3.03
2018-04-27T15:55:35.645Z,4.80
2018-04-27T16:00:37.050Z,3.13
2018-04-27T16:03:07.403Z,3.47
2018-04-27T16:05:35.868Z,4.00
2018-04-27T16:08:05.768Z,3.47
2018-04-27T16:10:34.659Z,3.53
2018-04-27T16:16:10.148Z,3.73
2018-04-27T16:18:38.997Z,3.80
2018-04-27T16:21:07.192Z,3.27
2018-04-27T16:23:41.239Z,3.40
2018-04-27T16:26:08.836Z,3.60
2018-04-27T16:28:36.663Z,4.23
2018-04-27T16:31:04.133Z,3.70
2018-04-27T16:33:37.933Z,2.90
2018-04-27T16:36:06.935Z,3.70
2018-04-27T16:38:34.450Z,3.47
2018-04-27T16:41:05.882Z,3.83
2018-04-27T16:43:33.403Z,5.20
2018-04-27T16:46:01.095Z,12.37
2018-04-27T16:48:28.602Z,4.10
2018-04-27T16:50:56.091Z,3.03
2018-04-27T16:53:23.804Z,3.07
2018-04-27T16:55:53.507Z,3.53
2018-04-27T16:58:21.252Z,4.83
2018-04-27T17:00:48.730Z,3.97
2018-04-27T17:03:16.227Z,13.37
2018-04-27T17:05:44.383Z,4.30
2018-04-27T17:08:13.548Z,3.97
2018-04-27T17:10:41.612Z,4.67
2018-04-27T17:13:14.557Z,4.90
2018-04-27T17:15:43.143Z,4.93
2018-04-27T17:18:11.589Z,4.70
2018-04-27T17:20:39.368Z,4.53
2018-04-27T17:23:07.940Z,4.37
2018-04-27T17:25:35.414Z,4.37
2018-04-27T17:28:03.162Z,4.83
2018-04-27T17:30:31.426Z,5.30
2018-04-27T17:32:59.558Z,5.83
2018-04-27T17:35:28.533Z,4.20
2018-04-27T17:37:57.344Z,4.10
2018-04-27T17:40:25.658Z,4.57
2018-04-27T17:42:53.608Z,4.63
2018-04-27T17:45:22.358Z,4.90
2018-04-27T17:47:51.068Z,4.60
2018-04-27T17:50:20.067Z,4.13
2018-04-27T17:52:47.749Z,5.30
2018-04-27T17:55:16.207Z,5.30
2018-04-27T17:57:43.695Z,5.70
2018-04-27T18:00:11.190Z,5.07
2018-04-27T18:02:38.827Z,5.77
2018-04-27T18:05:06.346Z,5.70
2018-04-27T18:07:33.936Z,5.03
2018-04-27T18:10:03.504Z,5.43
2018-04-27T18:12:32.996Z,6.63
2018-04-27T18:15:01.125Z,5.53
2018-04-27T18:17:29.379Z,5.50
2018-04-27T18:19:57.406Z,5.60
2018-04-27T18:22:25.677Z,6.17
2018-04-27T18:24:55.122Z,5.77
2018-04-27T18:27:24.357Z,6.13
2018-04-27T18:29:53.474Z,8.60
2018-04-27T18:34:54.014Z,9.23
2018-04-27T18:37:22.724Z,6.90
2018-04-27T18:39:50.903Z,6.63
2018-04-27T18:42:18.786Z,6.53
2018-04-27T18:44:47.035Z,5.43
2018-04-27T18:47:14.524Z,6.17
2018-04-27T18:49:42.407Z,5.77
2018-04-27T18:52:11.807Z,5.60
2018-04-27T18:54:40.223Z,5.77
2018-04-27T18:57:08.470Z,5.53
2018-04-27T19:02:27.213Z,5.90
2018-04-27T19:07:32.158Z,7.03
2018-04-27T19:09:59.620Z,5.73
2018-04-27T19:12:27.091Z,7.33
2018-04-27T19:14:54.620Z,5.60
2018-04-27T19:17:22.195Z,7.10
2018-04-27T19:19:49.722Z,6.43
2018-04-27T19:22:19.172Z,7.43
2018-04-27T19:24:47.089Z,7.17
2018-04-27T19:27:15.494Z,5.80
2018-04-27T19:29:43.113Z,5.97
2018-04-27T19:32:10.910Z,5.23
2018-04-27T19:34:38.699Z,5.53
2018-04-27T19:37:06.426Z,10.03
2018-04-27T19:39:34.149Z,5.73
2018-04-27T19:42:02.437Z,5.40
2018-04-27T19:44:32.641Z,5.87
2018-04-27T19:47:03.677Z,5.23
2018-04-27T19:52:04.503Z,5.87
2018-04-27T19:54:31.967Z,7.10
2018-04-27T19:57:00.148Z,5.67
2018-04-27T19:59:28.159Z,5.13
2018-04-27T20:01:55.699Z,5.13
2018-04-27T20:04:23.245Z,9.50
2018-04-27T20:06:51.502Z,7.47
2018-04-27T20:09:18.983Z,6.33
2018-04-27T20:11:48.029Z,6.07
2018-04-27T20:14:27.275Z,5.87
2018-04-27T20:16:54.844Z,6.37
2018-04-27T20:19:22.331Z,7.10
2018-04-27T20:21:51.379Z,11.57
2018-04-27T20:24:18.882Z,7.20
2018-04-27T20:26:47.354Z,8.00
2018-04-27T20:29:14.870Z,7.23
2018-04-27T20:31:42.383Z,7.17
2018-04-27T20:34:10.640Z,8.77
2018-04-27T20:36:39.069Z,8.77
2018-04-27T20:39:06.672Z,8.20
2018-04-27T20:41:34.181Z,8.43
2018-04-27T20:44:16.632Z,9.07
2018-04-27T20:46:44.139Z,8.40
2018-04-27T20:49:11.615Z,9.90
2018-04-27T20:51:40.042Z,9.30
2018-04-27T20:54:09.427Z,7.53
2018-04-27T20:56:49.261Z,9.63
2018-04-27T20:59:20.684Z,10.60
2018-04-27T21:01:48.380Z,8.03
2018-04-27T21:04:16.688Z,8.97
2018-04-27T21:06:44.247Z,7.67
2018-04-27T21:09:12.509Z,7.53
2018-04-27T21:11:40.039Z,7.80
2018-04-27T21:14:07.604Z,7.20
2018-04-27T21:16:35.742Z,7.40
2018-04-27T21:19:04.881Z,6.70
2018-04-27T21:21:32.423Z,6.43
2018-04-27T21:23:59.895Z,7.20
2018-04-27T21:26:29.196Z,9.40
2018-04-27T21:28:56.687Z,10.10
2018-04-27T21:31:24.212Z,7.37
2018-04-27T21:33:59.870Z,10.33
2018-04-27T21:36:29.979Z,8.00
2018-04-27T21:39:09.480Z,6.33
2018-04-27T21:41:47.607Z,6.33
2018-04-27T21:44:15.091Z,6.57
2018-04-27T21:46:51.867Z,6.47
2018-04-27T21:49:19.391Z,5.90
2018-04-27T21:51:56.579Z,6.10
2018-04-27T21:54:27.663Z,6.53
2018-04-27T21:57:10.088Z,6.50
2018-04-27T21:59:39.927Z,6.30
2018-04-27T22:02:08.430Z,6.27
2018-04-27T22:04:36.188Z,6.40
2018-04-27T22:07:06.464Z,6.87
2018-04-27T22:09:45.880Z,5.97
2018-04-27T22:12:13.378Z,6.10
2018-04-27T22:14:40.893Z,6.50
2018-04-27T22:17:11.092Z,6.50
2018-04-27T22:19:38.572Z,6.43
2018-04-27T22:22:06.067Z,6.73
2018-04-27T22:24:50.129Z,5.90
2018-04-27T22:27:18.383Z,7.07
2018-04-27T22:29:46.671Z,6.50
2018-04-27T22:32:20.635Z,5.63
2018-04-27T22:34:48.128Z,7.87
2018-04-27T22:37:16.336Z,5.83
2018-04-27T22:42:48.096Z,5.23
2018-04-27T22:45:18.849Z,6.37
2018-04-27T22:47:51.519Z,5.90
2018-04-27T22:50:22.013Z,7.07
2018-04-27T22:52:51.051Z,5.93
2018-04-27T22:55:21.723Z,5.47
2018-04-27T22:58:13.132Z,9.43
2018-04-27T23:00:41.460Z,6.20
2018-04-27T23:03:26.616Z,5.90
2018-04-27T23:05:54.952Z,6.60
2018-04-27T23:08:22.452Z,5.40
2018-04-27T23:10:56.812Z,5.70
2018-04-27T23:13:31.594Z,5.53
2018-04-27T23:16:01.024Z,6.43
2018-04-27T23:18:44.181Z,5.67
2018-04-27T23:21:13.072Z,5.83
2018-04-27T23:23:40.539Z,5.60
2018-04-27T23:26:08.042Z,5.80
2018-04-27T23:28:35.512Z,5.90
2018-04-27T23:31:03.006Z,5.73
2018-04-27T23:33:30.503Z,7.20
2018-04-27T23:35:58.007Z,6.80
2018-04-27T23:38:28.020Z,6.90
2018-04-27T23:40:56.091Z,6.93
2018-04-27T23:43:24.272Z,7.13
2018-04-27T23:45:52.235Z,7.80
2018-04-27T23:48:19.771Z,7.80
2018-04-27T23:50:48.021Z,7.80
2018-04-27T23:53:21.441Z,8.97
2018-04-27T23:55:48.987Z,8.37
2018-04-27T23:58:17.974Z,8.50
